sensor_id;sensor_type;location;lat;lon;timestamp;pressure;altitude;pressure_sealevel;temperature;humidity
70555;BME280;58104;52.744;15.242;2023-05-12T00:00:02;101182.39;;;20.63;33.68
70555;BME280;58104;52.744;15.242;2023-05-12T00:02:27;101180.36;;;20.56;33.95
70555;BME280;58104;52.744;15.242;2023-05-12T00:04:52;101179.82;;;20.49;32.36
70555;BME280;58104;52.744;15.242;2023-05-12T00:07:18;101179.52;;;20.63;33.88
70555;BME280;58104;52.744;15.242;2023-05-12T00:09:43;101180.85;;;20.69;33.88
70555;BME280;58104;52.744;15.242;2023-05-12T00:12:08;101176.88;;;20.81;34.08
70555;BME280;58104;52.744;15.242;2023-05-12T00:14:34;101180.31;;;21.04;33.96
70555;BME280;58104;52.744;15.242;2023-05-12T00:16:59;101180.85;;;21.07;34.14
70555;BME280;58104;52.744;15.242;2023-05-12T00:19:24;101181.12;;;21.17;34.04
70555;BME280;58104;52.744;15.242;2023-05-12T00:21:50;101176.74;;;21.20;34.05
70555;BME280;58104;52.744;15.242;2023-05-12T00:24:15;101173.47;;;21.25;34.04
70555;BME280;58104;52.744;15.242;2023-05-12T00:26:41;101176.53;;;21.25;34.05
70555;BME280;58104;52.744;15.242;2023-05-12T00:29:06;101178.37;;;21.33;34.06
70555;BME280;58104;52.744;15.242;2023-05-12T00:31:32;101175.59;;;21.30;34.32
70555;BME280;58104;52.744;15.242;2023-05-12T00:33:57;101181.39;;;21.09;34.67
70555;BME280;58104;52.744;15.242;2023-05-12T00:36:23;101179.21;;;21.05;34.67
70555;BME280;58104;52.744;15.242;2023-05-12T00:38:48;101178.49;;;20.89;34.89
70555;BME280;58104;52.744;15.242;2023-05-12T00:41:13;101177.35;;;20.92;35.01
70555;BME280;58104;52.744;15.242;2023-05-12T00:43:39;101176.70;;;21.10;34.89
70555;BME280;58104;52.744;15.242;2023-05-12T00:46:06;101176.93;;;21.12;34.91
70555;BME280;58104;52.744;15.242;2023-05-12T00:48:30;101179.59;;;21.19;34.93
70555;BME280;58104;52.744;15.242;2023-05-12T00:50:55;101185.89;;;21.14;35.23
70555;BME280;58104;52.744;15.242;2023-05-12T00:53:20;101185.11;;;21.03;35.35
70555;BME280;58104;52.744;15.242;2023-05-12T00:55:46;101184.60;;;20.91;35.45
70555;BME280;58104;52.744;15.242;2023-05-12T00:58:11;101185.00;;;20.91;35.58
70555;BME280;58104;52.744;15.242;2023-05-12T01:00:36;101185.25;;;20.79;35.75
70555;BME280;58104;52.744;15.242;2023-05-12T01:03:02;101186.33;;;20.76;35.81
70555;BME280;58104;52.744;15.242;2023-05-12T01:05:33;101180.83;;;20.62;36.09
70555;BME280;58104;52.744;15.242;2023-05-12T01:07:52;101183.68;;;20.53;36.30
70555;BME280;58104;52.744;15.242;2023-05-12T01:10:19;101183.44;;;20.55;36.36
70555;BME280;58104;52.744;15.242;2023-05-12T01:12:43;101185.41;;;20.55;36.27
70555;BME280;58104;52.744;15.242;2023-05-12T01:15:09;101185.11;;;20.51;36.47
70555;BME280;58104;52.744;15.242;2023-05-12T01:17:34;101185.88;;;20.68;36.42
70555;BME280;58104;52.744;15.242;2023-05-12T01:20:00;101189.08;;;20.69;36.52
70555;BME280;58104;52.744;15.242;2023-05-12T01:22:25;101190.56;;;20.65;36.44
70555;BME280;58104;52.744;15.242;2023-05-12T01:24:53;101192.07;;;20.66;36.66
70555;BME280;58104;52.744;15.242;2023-05-12T01:27:15;101194.02;;;20.60;36.61
70555;BME280;58104;52.744;15.242;2023-05-12T01:29:41;101193.29;;;20.86;36.85
70555;BME280;58104;52.744;15.242;2023-05-12T01:32:07;101194.97;;;20.96;36.61
70555;BME280;58104;52.744;15.242;2023-05-12T01:34:33;101195.55;;;21.05;36.65
70555;BME280;58104;52.744;15.242;2023-05-12T01:36:57;101196.11;;;20.99;36.79
70555;BME280;58104;52.744;15.242;2023-05-12T01:39:23;101197.71;;;20.89;36.80
70555;BME280;58104;52.744;15.242;2023-05-12T01:41:48;101196.57;;;20.92;36.82
70555;BME280;58104;52.744;15.242;2023-05-12T01:44:14;101200.67;;;20.98;36.78
70555;BME280;58104;52.744;15.242;2023-05-12T01:46:39;101196.67;;;21.00;36.89
70555;BME280;58104;52.744;15.242;2023-05-12T01:49:05;101201.67;;;20.98;36.96
70555;BME280;58104;52.744;15.242;2023-05-12T01:51:30;101200.01;;;21.02;37.31
70555;BME280;58104;52.744;15.242;2023-05-12T01:53:55;101200.71;;;21.07;37.22
70555;BME280;58104;52.744;15.242;2023-05-12T01:56:21;101201.38;;;21.06;37.41
70555;BME280;58104;52.744;15.242;2023-05-12T01:58:46;101202.40;;;20.94;37.52
70555;BME280;58104;52.744;15.242;2023-05-12T02:01:12;101204.39;;;21.00;37.71
70555;BME280;58104;52.744;15.242;2023-05-12T02:03:37;101204.58;;;20.91;37.75
70555;BME280;58104;52.744;15.242;2023-05-12T02:06:02;101205.66;;;20.81;37.99
70555;BME280;58104;52.744;15.242;2023-05-12T02:08:27;101204.76;;;20.87;38.02
70555;BME280;58104;52.744;15.242;2023-05-12T02:13:18;101214.07;;;20.82;37.99
70555;BME280;58104;52.744;15.242;2023-05-12T02:15:43;101216.14;;;20.90;37.92
70555;BME280;58104;52.744;15.242;2023-05-12T02:18:09;101215.70;;;20.88;38.01
70555;BME280;58104;52.744;15.242;2023-05-12T02:20:34;101216.31;;;20.76;38.16
70555;BME280;58104;52.744;15.242;2023-05-12T02:22:59;101212.61;;;20.80;38.27
70555;BME280;58104;52.744;15.242;2023-05-12T02:25:25;101217.63;;;20.95;37.95
70555;BME280;58104;52.744;15.242;2023-05-12T02:27:50;101217.35;;;20.93;37.93
70555;BME280;58104;52.744;15.242;2023-05-12T02:30:16;101220.73;;;20.98;37.95
70555;BME280;58104;52.744;15.242;2023-05-12T02:32:41;101222.82;;;21.02;37.95
70555;BME280;58104;52.744;15.242;2023-05-12T02:35:08;101225.42;;;21.10;38.02
70555;BME280;58104;52.744;15.242;2023-05-12T02:37:32;101224.14;;;20.92;38.14
70555;BME280;58104;52.744;15.242;2023-05-12T02:39:57;101225.19;;;20.87;38.27
70555;BME280;58104;52.744;15.242;2023-05-12T02:42:23;101222.94;;;21.05;38.22
70555;BME280;58104;52.744;15.242;2023-05-12T02:44:48;101224.34;;;21.11;38.17
70555;BME280;58104;52.744;15.242;2023-05-12T02:47:14;101223.66;;;21.07;38.22
70555;BME280;58104;52.744;15.242;2023-05-12T02:49:39;101223.57;;;20.99;38.37
70555;BME280;58104;52.744;15.242;2023-05-12T02:52:04;101225.98;;;20.97;38.56
70555;BME280;58104;52.744;15.242;2023-05-12T02:54:29;101226.20;;;21.00;38.56
70555;BME280;58104;52.744;15.242;2023-05-12T02:56:55;101227.49;;;21.09;38.67
70555;BME280;58104;52.744;15.242;2023-05-12T02:59:20;101224.02;;;21.02;38.78
70555;BME280;58104;52.744;15.242;2023-05-12T03:01:46;101221.64;;;21.12;38.91
70555;BME280;58104;52.744;15.242;2023-05-12T03:04:11;101218.15;;;20.98;39.05
70555;BME280;58104;52.744;15.242;2023-05-12T03:06:37;101219.91;;;20.92;39.20
70555;BME280;58104;52.744;15.242;2023-05-12T03:09:02;101219.13;;;21.07;39.19
70555;BME280;58104;52.744;15.242;2023-05-12T03:11:28;101224.14;;;20.98;39.28
70555;BME280;58104;52.744;15.242;2023-05-12T03:13:53;101222.83;;;21.00;39.41
70555;BME280;58104;52.744;15.242;2023-05-12T03:16:18;101226.94;;;21.03;39.93
70555;BME280;58104;52.744;15.242;2023-05-12T03:18:44;101228.77;;;21.04;39.62
70555;BME280;58104;52.744;15.242;2023-05-12T03:21:09;101234.10;;;20.98;39.83
70555;BME280;58104;52.744;15.242;2023-05-12T03:23:35;101231.52;;;21.02;39.83
70555;BME280;58104;52.744;15.242;2023-05-12T03:26:00;101229.56;;;21.00;39.86
70555;BME280;58104;52.744;15.242;2023-05-12T03:28:26;101232.86;;;21.02;39.76
70555;BME280;58104;52.744;15.242;2023-05-12T03:30:51;101235.30;;;21.00;40.20
70555;BME280;58104;52.744;15.242;2023-05-12T03:33:16;101234.44;;;21.22;39.95
70555;BME280;58104;52.744;15.242;2023-05-12T03:35:41;101232.60;;;21.30;39.76
70555;BME280;58104;52.744;15.242;2023-05-12T03:38:07;101240.46;;;21.19;39.58
70555;BME280;58104;52.744;15.242;2023-05-12T03:40:32;101244.48;;;21.23;39.52
70555;BME280;58104;52.744;15.242;2023-05-12T03:42:58;101248.06;;;21.35;39.37
70555;BME280;58104;52.744;15.242;2023-05-12T03:45:23;101248.60;;;21.28;39.32
70555;BME280;58104;52.744;15.242;2023-05-12T03:47:49;101253.63;;;21.33;39.29
70555;BME280;58104;52.744;15.242;2023-05-12T03:50:14;101249.26;;;21.27;39.31
70555;BME280;58104;52.744;15.242;2023-05-12T03:52:40;101249.94;;;21.28;39.23
70555;BME280;58104;52.744;15.242;2023-05-12T03:55:06;101252.99;;;21.26;39.13
70555;BME280;58104;52.744;15.242;2023-05-12T03:57:30;101252.37;;;21.29;39.12
70555;BME280;58104;52.744;15.242;2023-05-12T03:59:56;101254.82;;;21.40;39.13
70555;BME280;58104;52.744;15.242;2023-05-12T04:02:21;101249.60;;;21.18;39.59
70555;BME280;58104;52.744;15.242;2023-05-12T04:04:47;101251.20;;;21.32;39.51
70555;BME280;58104;52.744;15.242;2023-05-12T04:07:12;101251.67;;;21.19;39.49
70555;BME280;58104;52.744;15.242;2023-05-12T04:09:37;101253.29;;;21.20;39.62
70555;BME280;58104;52.744;15.242;2023-05-12T04:12:03;101253.74;;;21.24;39.62
70555;BME280;58104;52.744;15.242;2023-05-12T04:14:28;101256.43;;;21.18;39.67
70555;BME280;58104;52.744;15.242;2023-05-12T04:16:54;101257.96;;;21.12;39.69
70555;BME280;58104;52.744;15.242;2023-05-12T04:19:19;101258.58;;;21.12;39.59
70555;BME280;58104;52.744;15.242;2023-05-12T04:21:44;101260.61;;;21.14;39.71
70555;BME280;58104;52.744;15.242;2023-05-12T04:24:10;101264.55;;;21.11;39.76
70555;BME280;58104;52.744;15.242;2023-05-12T04:26:35;101267.00;;;21.03;39.79
70555;BME280;58104;52.744;15.242;2023-05-12T04:29:01;101270.07;;;21.04;39.74
70555;BME280;58104;52.744;15.242;2023-05-12T04:31:26;101271.30;;;21.06;39.71
70555;BME280;58104;52.744;15.242;2023-05-12T04:33:51;101274.16;;;21.05;39.72
70555;BME280;58104;52.744;15.242;2023-05-12T04:36:17;101276.48;;;21.18;39.69
70555;BME280;58104;52.744;15.242;2023-05-12T04:38:42;101280.12;;;21.19;39.56
70555;BME280;58104;52.744;15.242;2023-05-12T04:41:08;101282.45;;;21.21;39.67
70555;BME280;58104;52.744;15.242;2023-05-12T04:43:33;101284.65;;;21.26;39.63
70555;BME280;58104;52.744;15.242;2023-05-12T04:45:59;101283.71;;;21.21;39.59
70555;BME280;58104;52.744;15.242;2023-05-12T04:48:24;101289.31;;;21.20;39.64
70555;BME280;58104;52.744;15.242;2023-05-12T04:50:49;101284.09;;;21.20;39.66
70555;BME280;58104;52.744;15.242;2023-05-12T04:53:15;101285.84;;;21.25;39.51
70555;BME280;58104;52.744;15.242;2023-05-12T04:55:40;101285.43;;;21.28;39.48
70555;BME280;58104;52.744;15.242;2023-05-12T04:58:06;101291.23;;;21.20;39.55
70555;BME280;58104;52.744;15.242;2023-05-12T05:00:31;101295.73;;;21.29;39.51
70555;BME280;58104;52.744;15.242;2023-05-12T05:02:56;101294.68;;;21.31;39.59
70555;BME280;58104;52.744;15.242;2023-05-12T05:05:22;101298.71;;;21.27;39.78
70555;BME280;58104;52.744;15.242;2023-05-12T05:07:47;101302.68;;;21.31;39.73
70555;BME280;58104;52.744;15.242;2023-05-12T05:10:13;101303.69;;;21.22;39.80
70555;BME280;58104;52.744;15.242;2023-05-12T05:12:38;101300.03;;;21.27;39.74
70555;BME280;58104;52.744;15.242;2023-05-12T05:15:05;101304.39;;;21.36;39.53
70555;BME280;58104;52.744;15.242;2023-05-12T05:17:29;101307.41;;;21.26;39.68
70555;BME280;58104;52.744;15.242;2023-05-12T05:19:54;101310.38;;;21.37;39.51
70555;BME280;58104;52.744;15.242;2023-05-12T05:22:20;101312.70;;;21.37;39.57
70555;BME280;58104;52.744;15.242;2023-05-12T05:24:45;101312.13;;;21.44;39.49
70555;BME280;58104;52.744;15.242;2023-05-12T05:27:11;101312.08;;;21.49;39.57
70555;BME280;58104;52.744;15.242;2023-05-12T05:29:36;101311.55;;;21.51;39.51
70555;BME280;58104;52.744;15.242;2023-05-12T05:32:02;101309.03;;;21.42;39.73
70555;BME280;58104;52.744;15.242;2023-05-12T05:34:27;101313.20;;;21.54;39.47
70555;BME280;58104;52.744;15.242;2023-05-12T05:36:52;101312.60;;;21.47;39.56
70555;BME280;58104;52.744;15.242;2023-05-12T05:39:18;101312.54;;;21.44;39.58
70555;BME280;58104;52.744;15.242;2023-05-12T05:41:43;101314.78;;;21.37;39.59
70555;BME280;58104;52.744;15.242;2023-05-12T05:44:08;101318.42;;;21.48;39.47
70555;BME280;58104;52.744;15.242;2023-05-12T05:46:34;101318.95;;;21.45;39.53
70555;BME280;58104;52.744;15.242;2023-05-12T05:48:59;101317.60;;;21.56;39.30
70555;BME280;58104;52.744;15.242;2023-05-12T05:51:25;101322.26;;;21.50;39.44
70555;BME280;58104;52.744;15.242;2023-05-12T05:53:50;101323.28;;;21.59;39.16
70555;BME280;58104;52.744;15.242;2023-05-12T05:56:16;101324.77;;;21.61;39.02
70555;BME280;58104;52.744;15.242;2023-05-12T05:58:41;101325.53;;;21.66;39.03
70555;BME280;58104;52.744;15.242;2023-05-12T06:01:06;101327.16;;;21.61;39.11
70555;BME280;58104;52.744;15.242;2023-05-12T06:03:32;101327.90;;;21.63;39.07
70555;BME280;58104;52.744;15.242;2023-05-12T06:05:57;101331.37;;;21.63;39.08
70555;BME280;58104;52.744;15.242;2023-05-12T06:08:22;101332.88;;;21.69;38.93
70555;BME280;58104;52.744;15.242;2023-05-12T06:10:48;101331.90;;;21.64;39.27
70555;BME280;58104;52.744;15.242;2023-05-12T06:13:13;101335.66;;;21.65;39.50
70555;BME280;58104;52.744;15.242;2023-05-12T06:15:38;101336.81;;;21.68;39.55
70555;BME280;58104;52.744;15.242;2023-05-12T06:18:04;101337.38;;;21.82;39.27
70555;BME280;58104;52.744;15.242;2023-05-12T06:20:31;101338.47;;;21.72;39.22
70555;BME280;58104;52.744;15.242;2023-05-12T06:22:55;101338.49;;;21.63;38.75
70555;BME280;58104;52.744;15.242;2023-05-12T06:25:20;101342.89;;;20.82;36.78
70555;BME280;58104;52.744;15.242;2023-05-12T06:27:45;101346.99;;;20.66;35.34
70555;BME280;58104;52.744;15.242;2023-05-12T06:30:12;101341.42;;;20.76;34.53
70555;BME280;58104;52.744;15.242;2023-05-12T06:32:36;101346.40;;;20.94;35.03
70555;BME280;58104;52.744;15.242;2023-05-12T06:35:01;101343.17;;;20.75;34.01
70555;BME280;58104;52.744;15.242;2023-05-12T06:37:26;101343.12;;;20.62;33.18
70555;BME280;58104;52.744;15.242;2023-05-12T06:39:52;101346.66;;;20.66;34.50
70555;BME280;58104;52.744;15.242;2023-05-12T06:42:17;101348.06;;;20.72;34.01
70555;BME280;58104;52.744;15.242;2023-05-12T06:44:43;101352.51;;;20.86;33.83
70555;BME280;58104;52.744;15.242;2023-05-12T06:47:09;101348.23;;;20.96;33.61
70555;BME280;58104;52.744;15.242;2023-05-12T06:49:34;101350.27;;;20.98;32.79
70555;BME280;58104;52.744;15.242;2023-05-12T06:51:59;101348.66;;;20.96;33.46
70555;BME280;58104;52.744;15.242;2023-05-12T06:54:24;101344.32;;;21.23;33.70
70555;BME280;58104;52.744;15.242;2023-05-12T06:56:50;101344.65;;;21.15;33.31
70555;BME280;58104;52.744;15.242;2023-05-12T06:59:15;101346.38;;;21.23;33.59
70555;BME280;58104;52.744;15.242;2023-05-12T07:01:40;101351.55;;;21.39;33.51
70555;BME280;58104;52.744;15.242;2023-05-12T07:04:06;101348.90;;;21.29;32.86
70555;BME280;58104;52.744;15.242;2023-05-12T07:06:32;101350.31;;;21.14;33.07
70555;BME280;58104;52.744;15.242;2023-05-12T07:08:57;101343.30;;;21.36;33.36
70555;BME280;58104;52.744;15.242;2023-05-12T07:11:22;101346.89;;;21.19;33.16
70555;BME280;58104;52.744;15.242;2023-05-12T07:13:48;101347.19;;;21.36;33.08
70555;BME280;58104;52.744;15.242;2023-05-12T07:16:13;101347.82;;;20.98;33.45
70555;BME280;58104;52.744;15.242;2023-05-12T07:18:38;101348.53;;;20.99;33.22
70555;BME280;58104;52.744;15.242;2023-05-12T07:21:04;101343.57;;;20.86;32.87
70555;BME280;58104;52.744;15.242;2023-05-12T07:23:29;101346.96;;;21.05;33.14
70555;BME280;58104;52.744;15.242;2023-05-12T07:25:54;101349.73;;;21.21;32.90
70555;BME280;58104;52.744;15.242;2023-05-12T07:28:19;101351.27;;;21.17;32.57
70555;BME280;58104;52.744;15.242;2023-05-12T07:30:45;101352.66;;;21.42;31.79
70555;BME280;58104;52.744;15.242;2023-05-12T07:33:11;101350.05;;;21.44;32.14
70555;BME280;58104;52.744;15.242;2023-05-12T07:35:36;101354.65;;;21.36;32.05
70555;BME280;58104;52.744;15.242;2023-05-12T07:38:02;101358.97;;;21.36;31.73
70555;BME280;58104;52.744;15.242;2023-05-12T07:40:27;101359.71;;;21.63;31.38
70555;BME280;58104;52.744;15.242;2023-05-12T07:42:53;101363.38;;;21.40;31.93
70555;BME280;58104;52.744;15.242;2023-05-12T07:45:18;101361.81;;;21.43;31.93
70555;BME280;58104;52.744;15.242;2023-05-12T07:47:44;101364.01;;;21.39;31.94
70555;BME280;58104;52.744;15.242;2023-05-12T07:50:09;101356.08;;;21.18;32.42
70555;BME280;58104;52.744;15.242;2023-05-12T07:52:35;101351.22;;;21.56;31.67
70555;BME280;58104;52.744;15.242;2023-05-12T07:55:00;101352.18;;;21.49;32.41
70555;BME280;58104;52.744;15.242;2023-05-12T07:57:25;101347.38;;;21.54;32.27
70555;BME280;58104;52.744;15.242;2023-05-12T07:59:50;101346.37;;;21.54;32.38
70555;BME280;58104;52.744;15.242;2023-05-12T08:02:15;101342.18;;;21.66;31.68
70555;BME280;58104;52.744;15.242;2023-05-12T08:04:40;101343.71;;;21.97;31.68
70555;BME280;58104;52.744;15.242;2023-05-12T08:07:06;101344.24;;;22.07;32.23
70555;BME280;58104;52.744;15.242;2023-05-12T08:09:31;101345.42;;;22.17;32.19
70555;BME280;58104;52.744;15.242;2023-05-12T08:11:57;101346.97;;;22.19;32.20
70555;BME280;58104;52.744;15.242;2023-05-12T08:14:22;101347.35;;;21.99;32.17
70555;BME280;58104;52.744;15.242;2023-05-12T08:16:47;101344.53;;;22.12;32.36
70555;BME280;58104;52.744;15.242;2023-05-12T08:19:13;101339.24;;;21.80;31.86
70555;BME280;58104;52.744;15.242;2023-05-12T08:21:38;101341.50;;;21.94;31.94
70555;BME280;58104;52.744;15.242;2023-05-12T08:24:04;101343.85;;;21.57;31.52
70555;BME280;58104;52.744;15.242;2023-05-12T08:26:29;101345.19;;;21.87;30.81
70555;BME280;58104;52.744;15.242;2023-05-12T08:28:54;101345.97;;;22.14;30.95
70555;BME280;58104;52.744;15.242;2023-05-12T08:31:20;101340.61;;;21.99;30.92
70555;BME280;58104;52.744;15.242;2023-05-12T08:33:45;101337.49;;;22.10;31.08
70555;BME280;58104;52.744;15.242;2023-05-12T08:36:10;101329.83;;;22.09;30.98
70555;BME280;58104;52.744;15.242;2023-05-12T08:38:35;101330.66;;;22.27;31.03
70555;BME280;58104;52.744;15.242;2023-05-12T08:41:14;101330.42;;;22.50;30.91
70555;BME280;58104;52.744;15.242;2023-05-12T08:43:35;101328.89;;;22.25;30.37
70555;BME280;58104;52.744;15.242;2023-05-12T08:45:52;101335.69;;;22.06;30.49
70555;BME280;58104;52.744;15.242;2023-05-12T08:48:18;101331.01;;;22.32;30.77
70555;BME280;58104;52.744;15.242;2023-05-12T08:50:43;101329.67;;;21.62;29.47
70555;BME280;58104;52.744;15.242;2023-05-12T08:53:09;101333.90;;;21.87;29.78
70555;BME280;58104;52.744;15.242;2023-05-12T08:55:33;101336.58;;;22.01;29.77
70555;BME280;58104;52.744;15.242;2023-05-12T08:57:59;101334.26;;;22.11;29.48
70555;BME280;58104;52.744;15.242;2023-05-12T09:00:24;101336.44;;;21.99;29.74
70555;BME280;58104;52.744;15.242;2023-05-12T09:02:50;101337.58;;;22.49;29.57
70555;BME280;58104;52.744;15.242;2023-05-12T09:05:14;101336.75;;;22.39;29.35
70555;BME280;58104;52.744;15.242;2023-05-12T09:07:42;101339.42;;;22.58;28.74
70555;BME280;58104;52.744;15.242;2023-05-12T09:10:06;101339.60;;;22.70;28.98
70555;BME280;58104;52.744;15.242;2023-05-12T09:12:34;101340.34;;;22.73;28.47
70555;BME280;58104;52.744;15.242;2023-05-12T09:15:02;101332.31;;;22.55;28.48
70555;BME280;58104;52.744;15.242;2023-05-12T09:17:21;101335.26;;;22.60;28.15
70555;BME280;58104;52.744;15.242;2023-05-12T09:19:46;101330.74;;;22.83;27.90
70555;BME280;58104;52.744;15.242;2023-05-12T09:22:11;101327.90;;;22.86;27.24
70555;BME280;58104;52.744;15.242;2023-05-12T09:24:38;101323.96;;;22.39;27.12
70555;BME280;58104;52.744;15.242;2023-05-12T09:27:03;101315.36;;;22.89;27.50
70555;BME280;58104;52.744;15.242;2023-05-12T09:29:29;101332.38;;;23.11;27.60
70555;BME280;58104;52.744;15.242;2023-05-12T09:31:55;101319.93;;;23.29;27.56
70555;BME280;58104;52.744;15.242;2023-05-12T09:34:25;101319.82;;;23.28;27.43
70555;BME280;58104;52.744;15.242;2023-05-12T09:36:54;101334.79;;;22.77;24.92
70555;BME280;58104;52.744;15.242;2023-05-12T09:39:10;101329.34;;;22.80;25.15
70555;BME280;58104;52.744;15.242;2023-05-12T09:41:35;101319.89;;;22.75;24.23
70555;BME280;58104;52.744;15.242;2023-05-12T09:44:01;101317.52;;;22.98;24.87
70555;BME280;58104;52.744;15.242;2023-05-12T09:46:26;101321.77;;;23.08;24.58
70555;BME280;58104;52.744;15.242;2023-05-12T09:48:55;101319.15;;;23.27;24.98
70555;BME280;58104;52.744;15.242;2023-05-12T09:51:17;101321.57;;;23.29;25.20
70555;BME280;58104;52.744;15.242;2023-05-12T09:53:42;101329.17;;;23.38;24.12
70555;BME280;58104;52.744;15.242;2023-05-12T09:56:08;101329.70;;;23.34;25.13
70555;BME280;58104;52.744;15.242;2023-05-12T09:58:33;101332.11;;;23.62;24.18
70555;BME280;58104;52.744;15.242;2023-05-12T10:00:58;101336.56;;;23.66;23.75
70555;BME280;58104;52.744;15.242;2023-05-12T10:03:25;101333.21;;;23.66;23.87
70555;BME280;58104;52.744;15.242;2023-05-12T10:05:53;101333.49;;;23.59;23.05
70555;BME280;58104;52.744;15.242;2023-05-12T10:08:22;101325.13;;;23.66;23.05
70555;BME280;58104;52.744;15.242;2023-05-12T10:10:39;101320.80;;;23.46;24.42
70555;BME280;58104;52.744;15.242;2023-05-12T10:13:05;101321.01;;;23.55;24.98
70555;BME280;58104;52.744;15.242;2023-05-12T10:15:31;101321.63;;;23.66;24.55
70555;BME280;58104;52.744;15.242;2023-05-12T10:17:56;101319.50;;;23.59;25.50
70555;BME280;58104;52.744;15.242;2023-05-12T10:20:22;101319.74;;;23.61;24.91
70555;BME280;58104;52.744;15.242;2023-05-12T10:22:47;101315.92;;;23.58;25.43
70555;BME280;58104;52.744;15.242;2023-05-12T10:25:12;101313.50;;;23.62;25.31
70555;BME280;58104;52.744;15.242;2023-05-12T10:27:37;101323.65;;;23.77;25.26
70555;BME280;58104;52.744;15.242;2023-05-12T10:30:03;101307.87;;;23.77;25.43
70555;BME280;58104;52.744;15.242;2023-05-12T10:32:27;101313.73;;;23.91;24.67
70555;BME280;58104;52.744;15.242;2023-05-12T10:34:52;101313.82;;;23.79;24.64
70555;BME280;58104;52.744;15.242;2023-05-12T10:37:18;101311.49;;;23.67;25.57
70555;BME280;58104;52.744;15.242;2023-05-12T10:39:47;101316.31;;;23.71;24.58
70555;BME280;58104;52.744;15.242;2023-05-12T10:42:09;101310.84;;;23.45;25.53
70555;BME280;58104;52.744;15.242;2023-05-12T10:44:34;101307.12;;;23.55;24.34
70555;BME280;58104;52.744;15.242;2023-05-12T10:46:59;101309.49;;;23.49;24.79
70555;BME280;58104;52.744;15.242;2023-05-12T10:49:30;101304.55;;;23.77;25.12
70555;BME280;58104;52.744;15.242;2023-05-12T10:51:50;101305.58;;;23.60;25.30
70555;BME280;58104;52.744;15.242;2023-05-12T10:54:19;101299.86;;;23.56;25.50
70555;BME280;58104;52.744;15.242;2023-05-12T10:56:42;101299.71;;;23.50;25.45
70555;BME280;58104;52.744;15.242;2023-05-12T10:59:08;101299.18;;;23.50;25.84
70555;BME280;58104;52.744;15.242;2023-05-12T11:01:31;101295.67;;;23.68;24.92
70555;BME280;58104;52.744;15.242;2023-05-12T11:03:57;101301.82;;;23.65;25.55
70555;BME280;58104;52.744;15.242;2023-05-12T11:06:22;101300.31;;;23.72;25.56
70555;BME280;58104;52.744;15.242;2023-05-12T11:08:47;101295.61;;;23.82;25.84
70555;BME280;58104;52.744;15.242;2023-05-12T11:11:17;101294.37;;;23.72;26.18
70555;BME280;58104;52.744;15.242;2023-05-12T11:13:38;101291.55;;;23.94;24.76
70555;BME280;58104;52.744;15.242;2023-05-12T11:16:04;101299.59;;;23.74;24.63
70555;BME280;58104;52.744;15.242;2023-05-12T11:18:29;101294.95;;;23.86;24.92
70555;BME280;58104;52.744;15.242;2023-05-12T11:20:54;101294.80;;;23.73;25.05
70555;BME280;58104;52.744;15.242;2023-05-12T11:23:24;101285.97;;;23.78;24.90
70555;BME280;58104;52.744;15.242;2023-05-12T11:25:45;101288.76;;;23.82;25.01
70555;BME280;58104;52.744;15.242;2023-05-12T11:28:10;101290.33;;;23.83;24.72
70555;BME280;58104;52.744;15.242;2023-05-12T11:30:36;101293.98;;;23.96;23.70
70555;BME280;58104;52.744;15.242;2023-05-12T11:33:02;101296.80;;;23.91;24.43
70555;BME280;58104;52.744;15.242;2023-05-12T11:35:29;101288.10;;;23.87;25.20
70555;BME280;58104;52.744;15.242;2023-05-12T11:37:52;101289.74;;;23.90;24.85
70555;BME280;58104;52.744;15.242;2023-05-12T11:40:18;101291.77;;;24.00;24.44
70555;BME280;58104;52.744;15.242;2023-05-12T11:42:44;101297.57;;;24.05;23.30
70555;BME280;58104;52.744;15.242;2023-05-12T11:47:33;101292.19;;;24.14;23.84
70555;BME280;58104;52.744;15.242;2023-05-12T11:49:59;101292.93;;;24.07;23.92
70555;BME280;58104;52.744;15.242;2023-05-12T11:52:26;101294.03;;;24.09;23.84
70555;BME280;58104;52.744;15.242;2023-05-12T11:54:51;101293.89;;;23.84;22.76
70555;BME280;58104;52.744;15.242;2023-05-12T11:57:24;101286.44;;;23.86;23.24
70555;BME280;58104;52.744;15.242;2023-05-12T11:59:41;101279.70;;;23.89;23.30
70555;BME280;58104;52.744;15.242;2023-05-12T12:02:06;101287.74;;;24.13;23.15
70555;BME280;58104;52.744;15.242;2023-05-12T12:04:33;101285.85;;;24.16;23.25
70555;BME280;58104;52.744;15.242;2023-05-12T12:06:56;101298.55;;;23.89;23.37
70555;BME280;58104;52.744;15.242;2023-05-12T12:09:30;101287.15;;;23.73;22.72
70555;BME280;58104;52.744;15.242;2023-05-12T12:11:47;101289.96;;;23.92;23.36
70555;BME280;58104;52.744;15.242;2023-05-12T12:14:12;101290.99;;;23.81;23.72
70555;BME280;58104;52.744;15.242;2023-05-12T12:16:38;101281.72;;;23.81;23.39
70555;BME280;58104;52.744;15.242;2023-05-12T12:19:03;101285.88;;;23.77;22.52
70555;BME280;58104;52.744;15.242;2023-05-12T12:21:28;101286.21;;;23.75;23.14
70555;BME280;58104;52.744;15.242;2023-05-12T12:23:53;101296.72;;;24.09;22.82
70555;BME280;58104;52.744;15.242;2023-05-12T12:26:19;101292.77;;;24.03;22.87
70555;BME280;58104;52.744;15.242;2023-05-12T12:28:44;101285.45;;;24.16;22.35
70555;BME280;58104;52.744;15.242;2023-05-12T12:31:10;101298.07;;;24.04;22.88
70555;BME280;58104;52.744;15.242;2023-05-12T12:33:34;101297.83;;;24.02;22.72